Time;durP1;ratioP1;P1;durP2;ratioP2;P2;SDS_P1;SDS_P2;PMS_P1;PMS_P2;Temp;Humidity;BMP_temperature;BMP_pressure;BME280_temperature;BME280_humidity;BME280_pressure;Samples;Min_cycle;Max_cycle;Signal;HPM_P1;HPM_P2
2022/07/31 00:01:53;;;;;;;10.35;9.55;;;;;;;;;;4963936;28;20034;-70
2022/07/31 00:04:22;;;;;;;11.07;9.93;;;;;;;;;;4982476;28;20117;-71
2022/07/31 00:06:48;;;;;;;10.73;9.68;;;;;;;;;;4999250;28;20071;-71
2022/07/31 00:09:14;;;;;;;12.27;9.70;;;;;;;;;;4979672;28;20107;-70
2022/07/31 00:11:41;;;;;;;10.65;9.77;;;;;;;;;;4967351;28;20054;-70
2022/07/31 00:14:07;;;;;;;10.95;9.82;;;;;;;;;;4989964;28;20062;-70
2022/07/31 00:16:32;;;;;;;10.65;9.75;;;;;;;;;;4959761;28;20040;-70
2022/07/31 00:18:58;;;;;;;10.68;9.77;;;;;;;;;;4965692;28;20114;-70
2022/07/31 00:21:24;;;;;;;10.60;9.80;;;;;;;;;;5000241;28;20035;-71
2022/07/31 00:23:49;;;;;;;11.50;10.38;;;;;;;;;;4956413;28;20050;-70
2022/07/31 00:26:15;;;;;;;11.88;10.85;;;;;;;;;;4971438;28;20061;-70
2022/07/31 00:28:40;;;;;;;13.00;11.90;;;;;;;;;;4972816;28;20028;-70
2022/07/31 00:31:06;;;;;;;13.05;11.50;;;;;;;;;;4965777;28;20038;-70
2022/07/31 00:33:31;;;;;;;12.10;11.10;;;;;;;;;;4973014;28;21874;-70
2022/07/31 00:35:57;;;;;;;11.55;10.40;;;;;;;;;;4991680;28;20031;-70
2022/07/31 00:38:23;;;;;;;10.70;9.73;;;;;;;;;;4965334;28;20483;-70
2022/07/31 00:40:49;;;;;;;11.38;10.27;;;;;;;;;;4962466;28;20069;-70
2022/07/31 00:43:17;;;;;;;12.38;10.95;;;;;;;;;;4986340;28;20035;-70
2022/07/31 00:45:42;;;;;;;11.70;10.60;;;;;;;;;;4957496;28;20035;-70
2022/07/31 00:48:08;;;;;;;11.35;10.35;;;;;;;;;;4999809;28;20440;-70
2022/07/31 00:50:34;;;;;;;12.77;10.10;;;;;;;;;;4966160;28;20059;-70
2022/07/31 00:53:00;;;;;;;10.90;9.80;;;;;;;;;;4977293;28;20050;-69
2022/07/31 00:55:26;;;;;;;10.75;9.75;;;;;;;;;;4992406;28;20503;-70
2022/07/31 00:57:51;;;;;;;10.15;9.35;;;;;;;;;;4973470;28;20077;-70
2022/07/31 01:00:17;;;;;;;10.63;9.10;;;;;;;;;;4991694;28;20032;-70
2022/07/31 01:02:43;;;;;;;10.57;9.10;;;;;;;;;;4997905;28;20485;-70
2022/07/31 01:05:09;;;;;;;9.75;9.05;;;;;;;;;;4994748;28;20031;-70
2022/07/31 01:07:35;;;;;;;10.10;9.15;;;;;;;;;;4992966;28;20041;-70
2022/07/31 01:10:06;;;;;;;10.02;9.13;;;;;;;;;;4967081;28;20107;-70
2022/07/31 01:12:38;;;;;;;10.38;9.40;;;;;;;;;;4974788;28;20162;-70
2022/07/31 01:15:07;;;;;;;10.38;9.48;;;;;;;;;;4978508;28;20094;-70
2022/07/31 01:17:35;;;;;;;10.40;9.35;;;;;;;;;;4971227;28;20047;-69
2022/07/31 01:20:03;;;;;;;10.68;9.60;;;;;;;;;;4979206;28;20097;-69
2022/07/31 01:22:51;;;;;;;10.60;9.70;;;;;;;;;;4953868;28;20054;-69
2022/07/31 01:25:39;;;;;;;10.10;9.10;;;;;;;;;;4948710;28;20053;-69
2022/07/31 01:28:35;;;;;;;10.30;9.40;;;;;;;;;;4970071;28;20388;-71
2022/07/31 01:31:06;;;;;;;10.18;9.27;;;;;;;;;;4975720;28;20058;-70
2022/07/31 01:33:40;;;;;;;10.73;9.60;;;;;;;;;;4955152;28;20142;-70
2022/07/31 01:36:21;;;;;;;10.32;9.43;;;;;;;;;;4964456;28;20410;-70
2022/07/31 01:38:54;;;;;;;10.32;9.32;;;;;;;;;;4969365;28;20038;-70
2022/07/31 01:41:25;;;;;;;11.75;9.38;;;;;;;;;;4973192;28;20038;-70
2022/07/31 01:43:54;;;;;;;10.70;8.63;;;;;;;;;;4957902;28;20118;-69
2022/07/31 01:46:23;;;;;;;9.48;8.68;;;;;;;;;;4973258;28;20035;-70
2022/07/31 01:48:49;;;;;;;10.85;9.45;;;;;;;;;;4964952;28;20033;-70
2022/07/31 01:51:18;;;;;;;9.55;8.73;;;;;;;;;;4964393;28;20042;-70
2022/07/31 01:53:45;;;;;;;9.55;8.65;;;;;;;;;;4955847;28;20199;-70
2022/07/31 01:56:16;;;;;;;9.95;8.52;;;;;;;;;;4957430;28;20043;-70
2022/07/31 01:58:44;;;;;;;8.63;7.93;;;;;;;;;;4957118;28;20111;-70
2022/07/31 02:01:31;;;;;;;9.27;8.48;;;;;;;;;;4960438;28;20433;-70
2022/07/31 02:03:58;;;;;;;8.85;8.15;;;;;;;;;;4982082;28;20512;-70
2022/07/31 02:06:25;;;;;;;9.45;8.55;;;;;;;;;;4970649;28;20023;-70
2022/07/31 02:08:54;;;;;;;10.02;9.20;;;;;;;;;;4956918;28;20093;-70
2022/07/31 02:11:21;;;;;;;9.85;8.95;;;;;;;;;;4977761;28;20068;-70
2022/07/31 02:13:48;;;;;;;10.40;8.98;;;;;;;;;;4963292;28;20039;-70
2022/07/31 02:16:16;;;;;;;9.73;8.77;;;;;;;;;;4976294;28;20552;-70
2022/07/31 02:18:42;;;;;;;9.80;9.00;;;;;;;;;;4971284;28;20495;-71
2022/07/31 02:21:28;;;;;;;10.73;9.57;;;;;;;;;;4972582;28;21200;-70
2022/07/31 02:23:53;;;;;;;10.38;9.57;;;;;;;;;;4990752;28;20029;-70
2022/07/31 02:26:20;;;;;;;10.70;9.73;;;;;;;;;;4989931;28;20074;-70
2022/07/31 02:28:47;;;;;;;11.00;9.05;;;;;;;;;;4987241;28;20488;-70
2022/07/31 02:31:15;;;;;;;11.68;10.45;;;;;;;;;;4950333;28;20081;-70
2022/07/31 02:33:45;;;;;;;11.50;10.20;;;;;;;;;;4998231;28;20083;-70
2022/07/31 02:36:14;;;;;;;11.10;10.07;;;;;;;;;;5000156;28;20047;-70
2022/07/31 02:38:42;;;;;;;13.40;11.10;;;;;;;;;;4964713;28;20043;-70
2022/07/31 02:41:10;;;;;;;11.75;10.75;;;;;;;;;;4994890;28;20067;-70
2022/07/31 02:43:36;;;;;;;11.68;10.63;;;;;;;;;;4988528;28;20125;-70
2022/07/31 02:46:12;;;;;;;11.32;10.43;;;;;;;;;;4976469;28;20047;-70
2022/07/31 02:48:38;;;;;;;10.82;9.82;;;;;;;;;;4990381;28;20108;-70
2022/07/31 02:51:08;;;;;;;11.20;10.10;;;;;;;;;;5027769;28;20151;-70
2022/07/31 02:53:36;;;;;;;11.52;10.50;;;;;;;;;;4970904;28;20426;-70
2022/07/31 02:56:04;;;;;;;11.63;10.63;;;;;;;;;;4961556;28;20430;-70
2022/07/31 02:58:32;;;;;;;11.43;10.23;;;;;;;;;;4996890;28;20037;-70
2022/07/31 03:01:00;;;;;;;10.70;9.80;;;;;;;;;;4956956;28;20039;-70
2022/07/31 03:03:25;;;;;;;11.02;10.15;;;;;;;;;;4972790;28;20033;-70
2022/07/31 03:05:51;;;;;;;11.95;10.75;;;;;;;;;;4983499;28;20035;-70
2022/07/31 03:08:17;;;;;;;11.38;10.38;;;;;;;;;;4987888;28;20115;-70
2022/07/31 03:10:46;;;;;;;12.00;11.00;;;;;;;;;;4957549;28;20039;-70
2022/07/31 03:13:13;;;;;;;11.25;10.35;;;;;;;;;;4967975;28;21232;-69
2022/07/31 03:15:39;;;;;;;13.85;10.55;;;;;;;;;;4988059;28;20534;-70
2022/07/31 03:18:10;;;;;;;12.13;10.65;;;;;;;;;;4979304;28;20033;-70
2022/07/31 03:20:39;;;;;;;11.23;10.32;;;;;;;;;;4964110;28;20044;-70
2022/07/31 03:23:05;;;;;;;18.27;11.43;;;;;;;;;;5011336;28;20520;-70
2022/07/31 03:25:34;;;;;;;12.75;11.52;;;;;;;;;;4967570;28;20042;-70
2022/07/31 03:28:00;;;;;;;12.32;10.68;;;;;;;;;;4967084;28;20046;-70
2022/07/31 03:30:26;;;;;;;11.48;10.50;;;;;;;;;;4991466;28;20036;-70
2022/07/31 03:32:55;;;;;;;11.40;10.38;;;;;;;;;;4951223;28;20035;-70
2022/07/31 03:35:23;;;;;;;11.73;10.63;;;;;;;;;;4967679;28;20488;-70
2022/07/31 03:37:50;;;;;;;11.82;10.40;;;;;;;;;;4974808;28;20728;-69
2022/07/31 03:40:15;;;;;;;11.10;10.05;;;;;;;;;;4970849;28;20052;-69
2022/07/31 03:42:43;;;;;;;11.60;10.65;;;;;;;;;;4981519;28;20039;-69
2022/07/31 03:45:10;;;;;;;11.63;10.52;;;;;;;;;;4986901;28;20126;-69
2022/07/31 03:47:36;;;;;;;11.35;10.43;;;;;;;;;;4990675;28;20055;-69
2022/07/31 03:50:03;;;;;;;11.70;10.60;;;;;;;;;;4957922;28;20035;-69
2022/07/31 03:52:30;;;;;;;11.13;10.13;;;;;;;;;;4996791;28;20035;-69
2022/07/31 03:54:56;;;;;;;10.48;9.57;;;;;;;;;;5003954;28;20039;-69
2022/07/31 03:57:25;;;;;;;11.05;10.15;;;;;;;;;;4998995;28;20051;-69
2022/07/31 03:59:55;;;;;;;11.63;9.82;;;;;;;;;;4978296;28;20065;-68
2022/07/31 04:02:20;;;;;;;10.18;9.38;;;;;;;;;;4984550;28;20040;-69
2022/07/31 04:04:48;;;;;;;10.57;9.77;;;;;;;;;;4991197;28;20036;-68
2022/07/31 04:07:14;;;;;;;10.85;9.95;;;;;;;;;;4993145;28;20557;-69
2022/07/31 04:09:40;;;;;;;10.63;9.82;;;;;;;;;;4950852;28;20031;-69
2022/07/31 04:12:08;;;;;;;10.73;9.82;;;;;;;;;;4996279;28;20036;-68
2022/07/31 04:14:33;;;;;;;11.20;9.18;;;;;;;;;;4996576;28;20086;-68
2022/07/31 04:16:59;;;;;;;9.65;8.82;;;;;;;;;;4980767;28;20042;-68
2022/07/31 04:19:25;;;;;;;9.88;8.98;;;;;;;;;;4989709;28;20058;-68
2022/07/31 04:21:51;;;;;;;9.73;8.77;;;;;;;;;;4990607;28;20097;-70
2022/07/31 04:24:17;;;;;;;9.60;8.80;;;;;;;;;;4977091;28;20430;-69
2022/07/31 04:26:47;;;;;;;9.85;8.98;;;;;;;;;;4964055;28;20066;-69
2022/07/31 04:29:13;;;;;;;10.07;9.18;;;;;;;;;;5000000;28;20033;-69
2022/07/31 04:31:38;;;;;;;10.35;9.45;;;;;;;;;;4990186;28;20041;-69
2022/07/31 04:34:07;;;;;;;10.20;9.20;;;;;;;;;;4978266;28;20031;-69
2022/07/31 04:36:32;;;;;;;9.32;8.55;;;;;;;;;;4990923;28;20585;-69
2022/07/31 04:39:00;;;;;;;10.20;8.75;;;;;;;;;;4976812;28;20058;-69
2022/07/31 04:41:26;;;;;;;11.15;9.05;;;;;;;;;;4958412;28;20066;-69
2022/07/31 04:43:52;;;;;;;9.55;8.10;;;;;;;;;;4987134;28;20126;-69
2022/07/31 04:46:18;;;;;;;8.70;8.05;;;;;;;;;;4975139;28;20118;-69
2022/07/31 04:48:44;;;;;;;17.95;10.30;;;;;;;;;;4968592;28;20059;-69
2022/07/31 04:51:21;;;;;;;9.23;8.45;;;;;;;;;;4967997;28;20037;-69
2022/07/31 04:53:49;;;;;;;9.63;8.80;;;;;;;;;;4976125;28;20514;-69
2022/07/31 04:59:06;;;;;;;9.32;8.63;;;;;;;;;;4973161;28;20027;-68
2022/07/31 05:01:33;;;;;;;8.85;8.18;;;;;;;;;;4953023;28;20042;-69
2022/07/31 05:04:00;;;;;;;8.57;7.97;;;;;;;;;;4987562;28;20039;-69
2022/07/31 05:06:40;;;;;;;9.45;8.50;;;;;;;;;;4978466;28;20039;-69
2022/07/31 05:09:08;;;;;;;9.43;8.57;;;;;;;;;;4999933;28;20408;-69
2022/07/31 05:11:35;;;;;;;9.25;8.55;;;;;;;;;;4983902;28;20442;-69
2022/07/31 05:14:03;;;;;;;9.07;8.10;;;;;;;;;;4970320;28;20027;-69
2022/07/31 05:16:30;;;;;;;8.98;8.27;;;;;;;;;;4969371;28;20056;-69
2022/07/31 05:18:57;;;;;;;9.35;8.65;;;;;;;;;;4965302;28;20043;-69
2022/07/31 05:21:42;;;;;;;9.38;8.63;;;;;;;;;;4991891;28;20037;-69
2022/07/31 05:24:34;;;;;;;9.05;8.20;;;;;;;;;;4958300;28;20143;-69
2022/07/31 05:27:08;;;;;;;8.57;7.88;;;;;;;;;;4967282;28;20864;-69
2022/07/31 05:29:33;;;;;;;8.43;7.80;;;;;;;;;;4969094;28;20025;-69
2022/07/31 05:32:00;;;;;;;8.82;7.93;;;;;;;;;;4965002;28;20054;-69
2022/07/31 05:34:28;;;;;;;8.35;7.57;;;;;;;;;;4978162;28;20184;-69
2022/07/31 05:36:54;;;;;;;10.02;7.70;;;;;;;;;;4994347;28;20118;-69
2022/07/31 05:39:20;;;;;;;8.80;8.00;;;;;;;;;;4979581;28;20134;-69
2022/07/31 05:42:04;;;;;;;10.05;7.63;;;;;;;;;;4968066;28;20112;-69
2022/07/31 05:44:50;;;;;;;8.30;7.60;;;;;;;;;;4966028;28;20463;-69
2022/07/31 05:47:15;;;;;;;8.85;8.15;;;;;;;;;;4974089;28;20602;-69
2022/07/31 05:49:41;;;;;;;8.75;8.05;;;;;;;;;;4962004;28;20035;-69
2022/07/31 05:52:07;;;;;;;9.10;8.32;;;;;;;;;;4971472;28;20647;-69
2022/07/31 05:54:32;;;;;;;8.70;8.02;;;;;;;;;;4973912;28;20103;-69
2022/07/31 05:57:16;;;;;;;8.68;7.97;;;;;;;;;;4997493;28;20087;-70
2022/07/31 05:59:42;;;;;;;9.45;8.32;;;;;;;;;;4960811;28;20506;-69
2022/07/31 06:02:08;;;;;;;9.18;8.30;;;;;;;;;;4956879;28;20577;-69
2022/07/31 06:04:52;;;;;;;8.55;7.95;;;;;;;;;;4982769;28;20056;-69
2022/07/31 06:07:17;;;;;;;8.20;7.47;;;;;;;;;;4967439;28;20068;-69
2022/07/31 06:09:43;;;;;;;8.70;7.95;;;;;;;;;;4976361;28;20024;-69
2022/07/31 06:12:09;;;;;;;8.98;8.27;;;;;;;;;;4998989;28;20684;-69
2022/07/31 06:14:34;;;;;;;8.98;8.30;;;;;;;;;;4956909;28;20039;-69
2022/07/31 06:17:15;;;;;;;9.45;8.55;;;;;;;;;;4972421;28;20041;-69
2022/07/31 06:19:41;;;;;;;8.35;7.55;;;;;;;;;;5009393;28;20033;-68
2022/07/31 06:22:07;;;;;;;8.48;7.88;;;;;;;;;;5003637;28;20032;-69
2022/07/31 06:24:33;;;;;;;8.00;7.20;;;;;;;;;;4949476;28;20081;-69
2022/07/31 06:26:59;;;;;;;10.48;7.70;;;;;;;;;;4984898;28;20642;-69
2022/07/31 06:29:27;;;;;;;9.05;7.75;;;;;;;;;;4980187;28;20038;-69
2022/07/31 06:31:53;;;;;;;7.97;7.35;;;;;;;;;;4965597;28;20070;-69
2022/07/31 06:34:19;;;;;;;8.40;7.65;;;;;;;;;;4952451;28;20042;-68
2022/07/31 06:36:46;;;;;;;7.65;7.15;;;;;;;;;;4971244;28;20035;-68
2022/07/31 06:39:14;;;;;;;8.35;7.57;;;;;;;;;;4965613;28;20036;-68
2022/07/31 06:41:46;;;;;;;9.82;7.75;;;;;;;;;;4956340;28;20031;-68
2022/07/31 06:44:29;;;;;;;8.07;7.47;;;;;;;;;;4961929;28;20039;-68
2022/07/31 06:47:14;;;;;;;8.60;7.70;;;;;;;;;;4955690;28;20039;-68
2022/07/31 06:49:53;;;;;;;8.48;7.80;;;;;;;;;;4964472;28;20176;-68
2022/07/31 06:52:19;;;;;;;7.90;7.35;;;;;;;;;;4977369;28;20066;-68
2022/07/31 06:54:44;;;;;;;9.85;7.40;;;;;;;;;;4963364;28;20075;-69
2022/07/31 06:57:11;;;;;;;8.13;7.50;;;;;;;;;;4968354;28;20078;-69
2022/07/31 06:59:37;;;;;;;8.50;7.60;;;;;;;;;;4969796;28;20503;-69
2022/07/31 07:02:03;;;;;;;8.30;7.50;;;;;;;;;;4974119;28;20106;-69
2022/07/31 07:04:28;;;;;;;8.20;7.60;;;;;;;;;;4962403;28;20057;-68
2022/07/31 07:06:54;;;;;;;8.60;7.80;;;;;;;;;;4971330;28;20036;-68
2022/07/31 07:09:20;;;;;;;8.27;7.68;;;;;;;;;;4984653;28;20131;-68
2022/07/31 07:11:46;;;;;;;8.73;8.02;;;;;;;;;;4969876;28;20494;-68
2022/07/31 07:14:12;;;;;;;7.95;7.35;;;;;;;;;;4955394;28;21641;-68
2022/07/31 07:16:38;;;;;;;8.55;7.72;;;;;;;;;;5002706;28;20114;-69
2022/07/31 07:19:04;;;;;;;8.52;7.90;;;;;;;;;;4990029;28;21034;-68
2022/07/31 07:21:30;;;;;;;8.35;7.75;;;;;;;;;;4982421;28;20070;-68
2022/07/31 07:23:56;;;;;;;7.88;7.28;;;;;;;;;;4981380;28;20040;-68
2022/07/31 07:26:45;;;;;;;7.32;6.72;;;;;;;;;;4967716;28;20036;-68
2022/07/31 07:29:10;;;;;;;7.80;7.13;;;;;;;;;;5030256;28;20036;-68
2022/07/31 07:31:36;;;;;;;7.38;6.78;;;;;;;;;;4980786;28;20062;-68
2022/07/31 07:34:05;;;;;;;7.22;6.57;;;;;;;;;;4974276;28;20490;-68
2022/07/31 07:36:32;;;;;;;7.30;6.68;;;;;;;;;;4984888;28;20039;-68
2022/07/31 07:39:21;;;;;;;7.55;6.28;;;;;;;;;;4978907;28;20047;-68
2022/07/31 07:41:47;;;;;;;6.55;6.05;;;;;;;;;;4968413;28;20104;-69
2022/07/31 07:44:13;;;;;;;6.75;6.07;;;;;;;;;;4970784;28;20047;-68
2022/07/31 07:46:39;;;;;;;7.20;6.60;;;;;;;;;;4988177;28;20438;-68
2022/07/31 07:49:06;;;;;;;7.90;6.40;;;;;;;;;;4965093;28;20035;-68
2022/07/31 07:51:36;;;;;;;7.35;6.70;;;;;;;;;;4989786;28;20057;-69
2022/07/31 07:54:20;;;;;;;7.00;6.40;;;;;;;;;;4982435;28;20041;-68
2022/07/31 07:57:04;;;;;;;7.82;6.47;;;;;;;;;;4971865;28;20041;-69
2022/07/31 07:59:49;;;;;;;6.60;6.10;;;;;;;;;;4948778;28;20038;-69
2022/07/31 08:02:47;;;;;;;6.80;6.13;;;;;;;;;;4959470;28;20077;-69
2022/07/31 08:05:15;;;;;;;6.88;6.28;;;;;;;;;;5015868;28;20043;-68
2022/07/31 08:07:42;;;;;;;6.85;6.20;;;;;;;;;;4959863;28;20042;-68
2022/07/31 08:10:22;;;;;;;6.45;6.05;;;;;;;;;;4970103;28;20031;-69
2022/07/31 08:12:53;;;;;;;6.50;6.03;;;;;;;;;;4982904;28;20482;-68
2022/07/31 08:15:25;;;;;;;7.03;6.53;;;;;;;;;;4993701;28;20562;-69
2022/07/31 08:18:06;;;;;;;7.28;6.68;;;;;;;;;;4967752;28;20051;-68
2022/07/31 08:20:32;;;;;;;7.30;6.60;;;;;;;;;;4962693;28;20039;-68
2022/07/31 08:22:57;;;;;;;7.63;7.03;;;;;;;;;;4965471;28;20031;-69
2022/07/31 08:25:23;;;;;;;7.75;6.80;;;;;;;;;;4973163;28;20033;-69
2022/07/31 08:27:49;;;;;;;9.00;6.60;;;;;;;;;;4975922;28;20116;-69
2022/07/31 08:30:15;;;;;;;7.00;6.50;;;;;;;;;;4983545;28;20111;-69
2022/07/31 08:32:41;;;;;;;6.93;6.40;;;;;;;;;;4987800;28;20181;-69
2022/07/31 08:35:20;;;;;;;7.97;6.43;;;;;;;;;;4979037;28;20043;-68
2022/07/31 08:37:46;;;;;;;6.75;6.07;;;;;;;;;;4972186;28;20047;-69
2022/07/31 08:40:12;;;;;;;7.07;6.43;;;;;;;;;;4967158;28;20045;-69
2022/07/31 08:42:38;;;;;;;6.30;5.70;;;;;;;;;;4977168;28;20043;-68
2022/07/31 08:45:06;;;;;;;6.22;5.60;;;;;;;;;;4957056;28;20041;-69
2022/07/31 08:47:35;;;;;;;6.32;5.93;;;;;;;;;;4971838;28;20672;-69
2022/07/31 08:50:10;;;;;;;6.32;5.78;;;;;;;;;;4974624;28;20037;-68
2022/07/31 08:52:39;;;;;;;6.38;5.88;;;;;;;;;;4967427;28;20047;-69
2022/07/31 08:55:14;;;;;;;6.10;5.60;;;;;;;;;;4958375;28;20088;-69
2022/07/31 08:57:41;;;;;;;5.72;5.30;;;;;;;;;;4983277;28;20047;-69
2022/07/31 09:00:11;;;;;;;7.10;6.38;;;;;;;;;;4998593;28;20041;-69
2022/07/31 09:02:40;;;;;;;6.32;5.72;;;;;;;;;;4968097;28;20030;-69
2022/07/31 09:05:29;;;;;;;6.28;5.78;;;;;;;;;;4960922;28;20055;-68
2022/07/31 09:07:54;;;;;;;6.78;6.00;;;;;;;;;;4972824;28;20048;-69
2022/07/31 09:10:26;;;;;;;7.05;5.55;;;;;;;;;;4967207;28;20060;-68
2022/07/31 09:12:53;;;;;;;5.35;4.95;;;;;;;;;;4983715;28;20971;-69
2022/07/31 09:15:24;;;;;;;5.17;4.77;;;;;;;;;;4993840;28;20639;-68
2022/07/31 09:17:52;;;;;;;5.22;4.65;;;;;;;;;;4960998;28;20092;-69
2022/07/31 09:20:25;;;;;;;4.65;4.25;;;;;;;;;;4994935;28;20100;-68
2022/07/31 09:23:04;;;;;;;4.95;4.55;;;;;;;;;;5011169;28;20037;-68
2022/07/31 09:25:30;;;;;;;4.97;4.47;;;;;;;;;;5004106;28;20041;-68
2022/07/31 09:28:01;;;;;;;5.55;5.00;;;;;;;;;;4984201;28;20116;-69
2022/07/31 09:30:27;;;;;;;5.20;4.80;;;;;;;;;;4967347;28;20043;-70
2022/07/31 09:32:56;;;;;;;5.35;4.88;;;;;;;;;;4980405;28;20039;-69
2022/07/31 09:35:49;;;;;;;5.32;4.82;;;;;;;;;;4974643;28;20503;-69
2022/07/31 09:38:15;;;;;;;4.80;4.50;;;;;;;;;;4978475;28;20039;-67
2022/07/31 09:40:42;;;;;;;5.25;4.75;;;;;;;;;;4972329;28;20433;-68
2022/07/31 09:43:23;;;;;;;5.10;4.60;;;;;;;;;;4948631;28;20070;-68
2022/07/31 09:46:00;;;;;;;4.85;4.45;;;;;;;;;;4971611;28;20424;-68
2022/07/31 09:48:26;;;;;;;5.00;4.50;;;;;;;;;;4983404;28;20097;-68
2022/07/31 09:50:53;;;;;;;7.28;4.75;;;;;;;;;;4955243;28;20027;-69
2022/07/31 09:53:20;;;;;;;5.53;4.72;;;;;;;;;;4983019;28;20399;-68
2022/07/31 09:55:54;;;;;;;6.45;4.57;;;;;;;;;;4979360;28;20151;-68
2022/07/31 09:58:21;;;;;;;4.93;4.50;;;;;;;;;;4958735;28;20520;-68
2022/07/31 10:00:51;;;;;;;5.22;4.63;;;;;;;;;;4958737;28;20039;-68
2022/07/31 10:03:18;;;;;;;4.85;4.53;;;;;;;;;;4964960;28;20094;-68
2022/07/31 10:05:46;;;;;;;4.60;4.20;;;;;;;;;;4969892;28;20045;-68
2022/07/31 10:08:13;;;;;;;4.57;4.18;;;;;;;;;;4978902;28;20059;-68
2022/07/31 10:10:58;;;;;;;4.70;4.40;;;;;;;;;;4955228;28;20564;-69
2022/07/31 10:13:45;;;;;;;5.18;4.40;;;;;;;;;;4970596;28;20179;-68
2022/07/31 10:16:11;;;;;;;4.93;4.50;;;;;;;;;;4959252;28;20048;-68
2022/07/31 10:18:58;;;;;;;6.25;4.75;;;;;;;;;;4974216;28;20043;-68
2022/07/31 10:21:50;;;;;;;4.97;4.63;;;;;;;;;;4963391;28;20045;-68
2022/07/31 10:24:22;;;;;;;7.10;4.60;;;;;;;;;;4972419;28;20803;-69
2022/07/31 10:26:48;;;;;;;;;;;;;;;;;;4967934;28;20043;-69
2022/07/31 10:29:18;;;;;;;5.18;4.50;;;;;;;;;;5003447;28;19916;-68
2022/07/31 10:31:45;;;;;;;7.22;4.60;;;;;;;;;;5005067;28;20463;-68
2022/07/31 10:34:13;;;;;;;5.38;4.38;;;;;;;;;;4976818;28;20034;-68
2022/07/31 10:37:04;;;;;;;5.43;4.40;;;;;;;;;;4956503;28;20117;-68
2022/07/31 10:40:06;;;;;;;4.53;4.22;;;;;;;;;;4957998;28;20112;-69
2022/07/31 10:42:50;;;;;;;7.05;4.60;;;;;;;;;;4995177;28;20080;-67
2022/07/31 10:45:16;;;;;;;4.75;4.35;;;;;;;;;;4994949;28;21215;-66
2022/07/31 10:48:09;;;;;;;5.45;4.65;;;;;;;;;;4982199;28;20044;-69
2022/07/31 10:51:03;;;;;;;5.03;4.40;;;;;;;;;;4991928;28;20067;-66
2022/07/31 10:53:58;;;;;;;5.15;4.60;;;;;;;;;;4959697;28;20730;-67
2022/07/31 10:56:44;;;;;;;4.93;4.53;;;;;;;;;;4970797;28;20046;-66
2022/07/31 10:59:29;;;;;;;4.60;4.20;;;;;;;;;;4984570;28;20143;-66
2022/07/31 11:02:29;;;;;;;5.40;4.90;;;;;;;;;;4936897;28;20055;-66
2022/07/31 11:05:22;;;;;;;7.68;4.90;;;;;;;;;;4968852;28;20109;-66
2022/07/31 11:08:02;;;;;;;5.63;4.28;;;;;;;;;;4964043;28;20402;-66
2022/07/31 11:10:54;;;;;;;4.40;4.10;;;;;;;;;;4949960;28;20121;-69
2022/07/31 11:13:50;;;;;;;5.05;4.63;;;;;;;;;;4990802;28;20928;-68
2022/07/31 11:16:36;;;;;;;5.90;4.25;;;;;;;;;;4986398;28;21029;-66
2022/07/31 11:19:14;;;;;;;4.85;4.55;;;;;;;;;;4966646;28;20114;-66
2022/07/31 11:21:40;;;;;;;5.00;4.60;;;;;;;;;;4964247;28;20511;-67
2022/07/31 11:24:17;;;;;;;6.28;4.90;;;;;;;;;;4975074;28;20043;-65
2022/07/31 11:26:57;;;;;;;5.25;4.88;;;;;;;;;;4966003;28;20035;-67
2022/07/31 11:29:35;;;;;;;5.57;5.10;;;;;;;;;;4962683;28;20071;-67
2022/07/31 11:32:03;;;;;;;5.40;5.00;;;;;;;;;;4960282;28;21165;-67
2022/07/31 11:34:29;;;;;;;;;;;;;;;;;;4994090;28;20074;-67
2022/07/31 11:36:55;;;;;;;6.78;5.38;;;;;;;;;;4951079;28;19942;-67
2022/07/31 11:39:25;;;;;;;5.50;5.00;;;;;;;;;;4987497;28;20584;-67
2022/07/31 11:41:51;;;;;;;5.95;5.50;;;;;;;;;;5001346;28;20045;-67
2022/07/31 11:44:20;;;;;;;5.93;5.45;;;;;;;;;;4979237;28;20076;-67
2022/07/31 11:46:49;;;;;;;6.07;5.07;;;;;;;;;;4959603;28;20042;-67
2022/07/31 11:49:21;;;;;;;5.55;5.15;;;;;;;;;;4979453;28;20484;-67
2022/07/31 11:51:47;;;;;;;5.40;5.03;;;;;;;;;;5003291;28;20064;-67
2022/07/31 11:54:23;;;;;;;5.30;5.00;;;;;;;;;;4952709;28;20134;-66
2022/07/31 11:56:52;;;;;;;5.85;5.18;;;;;;;;;;4951988;28;20046;-67
2022/07/31 11:59:28;;;;;;;5.53;5.15;;;;;;;;;;4986974;28;20167;-67
2022/07/31 12:01:53;;;;;;;5.63;5.22;;;;;;;;;;4985319;28;20031;-67
2022/07/31 12:04:19;;;;;;;5.25;4.95;;;;;;;;;;4965042;28;20039;-67
2022/07/31 12:06:45;;;;;;;6.13;4.95;;;;;;;;;;4971329;28;20072;-67
2022/07/31 12:09:11;;;;;;;5.20;4.82;;;;;;;;;;4973579;28;20040;-67
2022/07/31 12:11:36;;;;;;;5.38;4.93;;;;;;;;;;4984039;28;20112;-67
2022/07/31 12:14:02;;;;;;;5.47;5.18;;;;;;;;;;4965507;28;20126;-67
2022/07/31 12:16:39;;;;;;;5.00;4.57;;;;;;;;;;4978301;28;20040;-65
2022/07/31 12:19:04;;;;;;;7.28;5.22;;;;;;;;;;4971676;28;20045;-67
2022/07/31 12:21:32;;;;;;;6.00;5.18;;;;;;;;;;4972156;28;20075;-67
2022/07/31 12:23:57;;;;;;;6.53;5.20;;;;;;;;;;4954999;28;20089;-67
2022/07/31 12:26:31;;;;;;;5.80;5.35;;;;;;;;;;4958287;28;20789;-66
2022/07/31 12:29:04;;;;;;;5.38;4.97;;;;;;;;;;4972007;28;20518;-67
2022/07/31 12:31:42;;;;;;;6.03;5.43;;;;;;;;;;4970099;28;20062;-67
2022/07/31 12:34:08;;;;;;;5.45;5.03;;;;;;;;;;4970849;28;20122;-66
2022/07/31 12:36:33;;;;;;;5.25;4.82;;;;;;;;;;4956972;28;20652;-67
2022/07/31 12:39:00;;;;;;;5.82;5.43;;;;;;;;;;4962123;28;20039;-67
2022/07/31 12:41:29;;;;;;;6.10;5.60;;;;;;;;;;4964035;28;20089;-67
2022/07/31 12:44:12;;;;;;;6.68;5.00;;;;;;;;;;4961068;28;20058;-67
2022/07/31 12:46:37;;;;;;;6.20;5.53;;;;;;;;;;4953683;28;20120;-67
2022/07/31 12:49:05;;;;;;;5.63;5.22;;;;;;;;;;4978870;28;20029;-67
2022/07/31 12:51:32;;;;;;;5.93;5.18;;;;;;;;;;4969923;28;20051;-66
2022/07/31 12:53:58;;;;;;;6.40;5.88;;;;;;;;;;4957677;28;20456;-67
2022/07/31 12:56:24;;;;;;;6.00;5.53;;;;;;;;;;4954412;28;20114;-67
2022/07/31 12:58:49;;;;;;;5.55;5.00;;;;;;;;;;4939177;28;20042;-67
2022/07/31 13:01:15;;;;;;;5.63;5.13;;;;;;;;;;4959382;28;20042;-67
2022/07/31 13:03:40;;;;;;;6.00;4.78;;;;;;;;;;4951676;28;20126;-67
2022/07/31 13:06:07;;;;;;;5.20;4.80;;;;;;;;;;4961094;28;20050;-67
2022/07/31 13:08:33;;;;;;;5.50;5.20;;;;;;;;;;4950082;28;20075;-67
2022/07/31 13:10:59;;;;;;;6.97;5.18;;;;;;;;;;4955171;28;20070;-67
2022/07/31 13:13:24;;;;;;;5.95;5.25;;;;;;;;;;4968684;28;20118;-68
2022/07/31 13:15:50;;;;;;;5.40;4.95;;;;;;;;;;4965388;28;20031;-69
2022/07/31 13:18:16;;;;;;;5.00;4.70;;;;;;;;;;4958542;28;20052;-68
2022/07/31 13:20:42;;;;;;;6.10;4.70;;;;;;;;;;4957962;28;20039;-68
2022/07/31 13:23:07;;;;;;;5.40;5.03;;;;;;;;;;4981998;28;20043;-68
2022/07/31 13:25:33;;;;;;;5.80;5.28;;;;;;;;;;4979530;28;20247;-68
2022/07/31 13:27:59;;;;;;;5.30;5.00;;;;;;;;;;4951989;28;20031;-68
2022/07/31 13:30:26;;;;;;;5.50;5.10;;;;;;;;;;4979011;28;20046;-68
2022/07/31 13:32:52;;;;;;;5.90;5.50;;;;;;;;;;4944534;28;20089;-68
2022/07/31 13:35:20;;;;;;;6.15;5.70;;;;;;;;;;4969920;28;20578;-68
2022/07/31 13:37:46;;;;;;;5.82;5.35;;;;;;;;;;4952812;28;20112;-68
2022/07/31 13:40:13;;;;;;;5.57;5.15;;;;;;;;;;4958691;28;20506;-68
2022/07/31 13:42:39;;;;;;;5.40;5.00;;;;;;;;;;4972532;28;20035;-68
2022/07/31 13:45:05;;;;;;;5.80;5.28;;;;;;;;;;4970266;28;20039;-68
2022/07/31 13:47:30;;;;;;;6.82;5.20;;;;;;;;;;4950400;28;20041;-68
2022/07/31 13:49:56;;;;;;;5.60;5.20;;;;;;;;;;4961003;28;20101;-68
2022/07/31 13:52:21;;;;;;;6.20;5.22;;;;;;;;;;4955867;28;20068;-68
2022/07/31 13:54:47;;;;;;;6.15;5.55;;;;;;;;;;4972237;28;20114;-68
2022/07/31 13:57:14;;;;;;;5.60;5.20;;;;;;;;;;4965731;28;20131;-68
2022/07/31 13:59:40;;;;;;;5.50;5.20;;;;;;;;;;4940743;28;20077;-68
2022/07/31 14:02:06;;;;;;;5.78;5.30;;;;;;;;;;4987564;28;20133;-68
2022/07/31 14:04:32;;;;;;;6.00;5.60;;;;;;;;;;4944793;28;20078;-68
2022/07/31 14:06:57;;;;;;;5.70;5.20;;;;;;;;;;4983674;28;20127;-68
2022/07/31 14:09:23;;;;;;;6.00;5.40;;;;;;;;;;4967287;28;20031;-68
2022/07/31 14:11:48;;;;;;;5.78;5.32;;;;;;;;;;4959055;28;21003;-68
2022/07/31 14:14:14;;;;;;;6.00;5.50;;;;;;;;;;4956857;28;20041;-69
2022/07/31 14:16:41;;;;;;;5.68;5.30;;;;;;;;;;4965175;28;20195;-68
2022/07/31 14:19:07;;;;;;;6.25;5.75;;;;;;;;;;4970390;28;20050;-68
2022/07/31 14:21:33;;;;;;;6.57;5.53;;;;;;;;;;4968843;28;20040;-67
2022/07/31 14:23:59;;;;;;;5.57;5.18;;;;;;;;;;4969564;28;20035;-68
2022/07/31 14:26:24;;;;;;;5.57;5.10;;;;;;;;;;4962173;28;20109;-67
2022/07/31 14:28:50;;;;;;;5.90;5.50;;;;;;;;;;4952632;28;20039;-67
2022/07/31 14:31:16;;;;;;;6.13;5.63;;;;;;;;;;4984637;28;20144;-67
2022/07/31 14:33:42;;;;;;;5.78;5.38;;;;;;;;;;4967574;28;20042;-66
2022/07/31 14:36:07;;;;;;;5.65;5.13;;;;;;;;;;4968861;28;20047;-66
2022/07/31 14:38:33;;;;;;;5.70;5.22;;;;;;;;;;4960489;28;20043;-68
2022/07/31 14:41:00;;;;;;;6.63;5.60;;;;;;;;;;4988294;28;20158;-68
2022/07/31 14:43:26;;;;;;;5.68;5.28;;;;;;;;;;4977111;28;20053;-68
2022/07/31 14:45:51;;;;;;;5.93;5.40;;;;;;;;;;4960658;28;20526;-67
2022/07/31 14:48:17;;;;;;;6.32;5.50;;;;;;;;;;4969659;28;20041;-67
2022/07/31 14:50:43;;;;;;;5.78;5.38;;;;;;;;;;4985142;28;20038;-67
2022/07/31 14:53:09;;;;;;;5.78;5.38;;;;;;;;;;4990131;28;20036;-67
2022/07/31 14:55:36;;;;;;;6.30;5.05;;;;;;;;;;4960615;28;20522;-67
2022/07/31 14:58:02;;;;;;;5.72;5.30;;;;;;;;;;4984734;28;20045;-67